sensor_id;sensor_type;location;lat;lon;timestamp;P1;durP1;ratioP1;P2;durP2;ratioP2
66112;SDS011;52893;52.870;5.822;2024-03-22T00:01:46;31.33;;;14.93;;
66112;SDS011;52893;52.870;5.822;2024-03-22T00:04:13;27.77;;;14.18;;
66112;SDS011;52893;52.870;5.822;2024-03-22T00:06:41;30.38;;;15.55;;
66112;SDS011;52893;52.870;5.822;2024-03-22T00:09:08;29.05;;;15.75;;
66112;SDS011;52893;52.870;5.822;2024-03-22T00:11:35;28.38;;;15.27;;
66112;SDS011;52893;52.870;5.822;2024-03-22T00:14:03;31.42;;;16.30;;
66112;SDS011;52893;52.870;5.822;2024-03-22T00:16:30;38.90;;;20.15;;
66112;SDS011;52893;52.870;5.822;2024-03-22T00:18:57;39.75;;;19.77;;
66112;SDS011;52893;52.870;5.822;2024-03-22T00:21:24;28.83;;;14.68;;
66112;SDS011;52893;52.870;5.822;2024-03-22T00:23:50;28.92;;;14.18;;
66112;SDS011;52893;52.870;5.822;2024-03-22T00:26:18;29.33;;;15.20;;
66112;SDS011;52893;52.870;5.822;2024-03-22T00:28:44;33.95;;;16.23;;
66112;SDS011;52893;52.870;5.822;2024-03-22T00:31:12;36.78;;;17.30;;
66112;SDS011;52893;52.870;5.822;2024-03-22T00:33:39;49.40;;;22.17;;
66112;SDS011;52893;52.870;5.822;2024-03-22T00:36:07;38.88;;;17.90;;
66112;SDS011;52893;52.870;5.822;2024-03-22T00:38:34;15.68;;;7.95;;
66112;SDS011;52893;52.870;5.822;2024-03-22T00:41:01;33.35;;;18.25;;
66112;SDS011;52893;52.870;5.822;2024-03-22T00:43:28;39.17;;;22.15;;
66112;SDS011;52893;52.870;5.822;2024-03-22T00:45:55;38.67;;;19.55;;
66112;SDS011;52893;52.870;5.822;2024-03-22T00:48:23;37.53;;;18.05;;
66112;SDS011;52893;52.870;5.822;2024-03-22T00:50:51;33.42;;;16.98;;
66112;SDS011;52893;52.870;5.822;2024-03-22T00:53:17;31.63;;;15.88;;
66112;SDS011;52893;52.870;5.822;2024-03-22T00:55:44;41.03;;;17.90;;
66112;SDS011;52893;52.870;5.822;2024-03-22T00:58:12;35.42;;;17.90;;
66112;SDS011;52893;52.870;5.822;2024-03-22T01:00:39;27.42;;;12.30;;
66112;SDS011;52893;52.870;5.822;2024-03-22T01:03:06;40.47;;;18.45;;
66112;SDS011;52893;52.870;5.822;2024-03-22T01:05:35;33.22;;;16.65;;
66112;SDS011;52893;52.870;5.822;2024-03-22T01:08:02;31.95;;;16.60;;
66112;SDS011;52893;52.870;5.822;2024-03-22T01:10:30;46.80;;;21.58;;
66112;SDS011;52893;52.870;5.822;2024-03-22T01:12:56;39.33;;;19.98;;
66112;SDS011;52893;52.870;5.822;2024-03-22T01:15:23;47.60;;;23.08;;
66112;SDS011;52893;52.870;5.822;2024-03-22T01:17:50;25.15;;;12.80;;
66112;SDS011;52893;52.870;5.822;2024-03-22T01:20:17;36.17;;;15.90;;
66112;SDS011;52893;52.870;5.822;2024-03-22T01:22:45;37.45;;;18.67;;
66112;SDS011;52893;52.870;5.822;2024-03-22T01:25:12;36.35;;;17.48;;
66112;SDS011;52893;52.870;5.822;2024-03-22T01:27:39;39.20;;;18.55;;
66112;SDS011;52893;52.870;5.822;2024-03-22T01:30:06;26.33;;;12.68;;
66112;SDS011;52893;52.870;5.822;2024-03-22T01:32:34;45.65;;;21.63;;
66112;SDS011;52893;52.870;5.822;2024-03-22T01:35:01;29.08;;;15.10;;
66112;SDS011;52893;52.870;5.822;2024-03-22T01:37:28;46.63;;;22.40;;
66112;SDS011;52893;52.870;5.822;2024-03-22T01:39:57;37.85;;;14.68;;
66112;SDS011;52893;52.870;5.822;2024-03-22T01:42:23;38.90;;;17.80;;
66112;SDS011;52893;52.870;5.822;2024-03-22T01:44:51;33.80;;;14.32;;
66112;SDS011;52893;52.870;5.822;2024-03-22T01:47:17;59.88;;;29.48;;
66112;SDS011;52893;52.870;5.822;2024-03-22T01:49:44;38.42;;;18.52;;
66112;SDS011;52893;52.870;5.822;2024-03-22T01:52:11;59.70;;;28.70;;
66112;SDS011;52893;52.870;5.822;2024-03-22T01:54:38;66.65;;;32.67;;
66112;SDS011;52893;52.870;5.822;2024-03-22T01:57:06;40.58;;;19.88;;
66112;SDS011;52893;52.870;5.822;2024-03-22T01:59:34;45.70;;;20.60;;
66112;SDS011;52893;52.870;5.822;2024-03-22T02:02:00;64.10;;;30.95;;
66112;SDS011;52893;52.870;5.822;2024-03-22T02:04:28;63.00;;;29.88;;
66112;SDS011;52893;52.870;5.822;2024-03-22T02:06:55;55.28;;;25.08;;
66112;SDS011;52893;52.870;5.822;2024-03-22T02:09:22;61.55;;;25.48;;
66112;SDS011;52893;52.870;5.822;2024-03-22T02:11:48;56.92;;;23.80;;
66112;SDS011;52893;52.870;5.822;2024-03-22T02:14:17;70.35;;;33.78;;
66112;SDS011;52893;52.870;5.822;2024-03-22T02:16:44;46.10;;;20.02;;
66112;SDS011;52893;52.870;5.822;2024-03-22T02:19:12;40.10;;;16.50;;
66112;SDS011;52893;52.870;5.822;2024-03-22T02:21:38;23.67;;;10.10;;
66112;SDS011;52893;52.870;5.822;2024-03-22T02:24:07;62.75;;;28.67;;
66112;SDS011;52893;52.870;5.822;2024-03-22T02:26:33;59.90;;;29.30;;
66112;SDS011;52893;52.870;5.822;2024-03-22T02:29:04;49.80;;;19.75;;
66112;SDS011;52893;52.870;5.822;2024-03-22T02:31:30;52.65;;;25.40;;
66112;SDS011;52893;52.870;5.822;2024-03-22T02:33:58;26.73;;;12.32;;
66112;SDS011;52893;52.870;5.822;2024-03-22T02:36:24;63.45;;;28.20;;
66112;SDS011;52893;52.870;5.822;2024-03-22T02:38:52;57.00;;;25.65;;
66112;SDS011;52893;52.870;5.822;2024-03-22T02:41:20;40.10;;;15.38;;
66112;SDS011;52893;52.870;5.822;2024-03-22T02:43:47;63.78;;;30.60;;
66112;SDS011;52893;52.870;5.822;2024-03-22T02:46:14;66.18;;;28.92;;
66112;SDS011;52893;52.870;5.822;2024-03-22T02:48:41;50.85;;;24.00;;
66112;SDS011;52893;52.870;5.822;2024-03-22T02:51:07;38.70;;;15.13;;
66112;SDS011;52893;52.870;5.822;2024-03-22T02:53:35;25.13;;;10.77;;
66112;SDS011;52893;52.870;5.822;2024-03-22T02:56:01;37.30;;;18.00;;
66112;SDS011;52893;52.870;5.822;2024-03-22T02:58:30;18.23;;;8.88;;
66112;SDS011;52893;52.870;5.822;2024-03-22T03:00:56;33.95;;;15.70;;
66112;SDS011;52893;52.870;5.822;2024-03-22T03:03:24;36.72;;;16.25;;
66112;SDS011;52893;52.870;5.822;2024-03-22T03:05:50;53.83;;;24.38;;
66112;SDS011;52893;52.870;5.822;2024-03-22T03:08:18;22.08;;;10.52;;
66112;SDS011;52893;52.870;5.822;2024-03-22T03:10:44;45.22;;;21.88;;
66112;SDS011;52893;52.870;5.822;2024-03-22T03:13:12;25.17;;;10.65;;
66112;SDS011;52893;52.870;5.822;2024-03-22T03:15:39;32.90;;;10.25;;
66112;SDS011;52893;52.870;5.822;2024-03-22T03:18:07;21.27;;;9.23;;
66112;SDS011;52893;52.870;5.822;2024-03-22T03:20:33;14.20;;;4.90;;
66112;SDS011;52893;52.870;5.822;2024-03-22T03:23:00;39.28;;;15.27;;
66112;SDS011;52893;52.870;5.822;2024-03-22T03:25:27;46.53;;;14.68;;
66112;SDS011;52893;52.870;5.822;2024-03-22T03:27:54;49.03;;;21.77;;
66112;SDS011;52893;52.870;5.822;2024-03-22T03:30:21;42.90;;;17.55;;
66112;SDS011;52893;52.870;5.822;2024-03-22T03:32:49;39.60;;;16.00;;
66112;SDS011;52893;52.870;5.822;2024-03-22T03:35:16;37.30;;;14.68;;
66112;SDS011;52893;52.870;5.822;2024-03-22T03:37:43;20.42;;;6.45;;
66112;SDS011;52893;52.870;5.822;2024-03-22T03:40:09;49.03;;;17.42;;
66112;SDS011;52893;52.870;5.822;2024-03-22T03:42:37;23.25;;;10.70;;
66112;SDS011;52893;52.870;5.822;2024-03-22T03:45:04;48.58;;;22.70;;
66112;SDS011;52893;52.870;5.822;2024-03-22T03:47:31;46.05;;;17.98;;
66112;SDS011;52893;52.870;5.822;2024-03-22T03:50:00;38.55;;;17.10;;
66112;SDS011;52893;52.870;5.822;2024-03-22T03:52:28;14.63;;;7.60;;
66112;SDS011;52893;52.870;5.822;2024-03-22T03:54:54;7.47;;;4.35;;
66112;SDS011;52893;52.870;5.822;2024-03-22T03:57:21;38.10;;;17.08;;
66112;SDS011;52893;52.870;5.822;2024-03-22T03:59:48;46.33;;;20.50;;
66112;SDS011;52893;52.870;5.822;2024-03-22T04:02:15;12.88;;;6.03;;
66112;SDS011;52893;52.870;5.822;2024-03-22T04:04:41;33.47;;;11.15;;
66112;SDS011;52893;52.870;5.822;2024-03-22T04:07:10;34.17;;;10.70;;
66112;SDS011;52893;52.870;5.822;2024-03-22T04:09:36;26.70;;;13.13;;
66112;SDS011;52893;52.870;5.822;2024-03-22T04:12:03;39.92;;;17.30;;
66112;SDS011;52893;52.870;5.822;2024-03-22T04:14:30;12.60;;;4.20;;
66112;SDS011;52893;52.870;5.822;2024-03-22T04:16:58;40.42;;;19.05;;
66112;SDS011;52893;52.870;5.822;2024-03-22T04:19:24;24.52;;;8.90;;
66112;SDS011;52893;52.870;5.822;2024-03-22T04:21:51;26.80;;;11.18;;
66112;SDS011;52893;52.870;5.822;2024-03-22T04:24:19;12.93;;;4.95;;
66112;SDS011;52893;52.870;5.822;2024-03-22T04:26:46;36.22;;;17.35;;
66112;SDS011;52893;52.870;5.822;2024-03-22T04:29:12;35.65;;;12.82;;
66112;SDS011;52893;52.870;5.822;2024-03-22T04:31:40;23.45;;;10.43;;
66112;SDS011;52893;52.870;5.822;2024-03-22T04:34:06;16.95;;;8.68;;
66112;SDS011;52893;52.870;5.822;2024-03-22T04:36:33;25.67;;;10.80;;
66112;SDS011;52893;52.870;5.822;2024-03-22T04:39:00;42.03;;;18.15;;
66112;SDS011;52893;52.870;5.822;2024-03-22T04:41:28;35.85;;;18.25;;
66112;SDS011;52893;52.870;5.822;2024-03-22T04:43:55;40.58;;;15.70;;
66112;SDS011;52893;52.870;5.822;2024-03-22T04:46:22;25.25;;;10.38;;
66112;SDS011;52893;52.870;5.822;2024-03-22T04:48:48;25.25;;;10.57;;
66112;SDS011;52893;52.870;5.822;2024-03-22T04:51:16;29.67;;;14.90;;
66112;SDS011;52893;52.870;5.822;2024-03-22T04:53:42;30.08;;;9.82;;
66112;SDS011;52893;52.870;5.822;2024-03-22T04:56:09;29.27;;;14.25;;
66112;SDS011;52893;52.870;5.822;2024-03-22T04:58:37;27.95;;;11.30;;
66112;SDS011;52893;52.870;5.822;2024-03-22T05:01:05;27.17;;;11.85;;
66112;SDS011;52893;52.870;5.822;2024-03-22T05:03:31;23.35;;;10.73;;
66112;SDS011;52893;52.870;5.822;2024-03-22T05:05:59;32.08;;;14.10;;
66112;SDS011;52893;52.870;5.822;2024-03-22T05:08:25;15.95;;;7.25;;
66112;SDS011;52893;52.870;5.822;2024-03-22T05:10:52;21.63;;;8.95;;
66112;SDS011;52893;52.870;5.822;2024-03-22T05:13:19;29.90;;;12.00;;
66112;SDS011;52893;52.870;5.822;2024-03-22T05:15:47;18.90;;;7.28;;
66112;SDS011;52893;52.870;5.822;2024-03-22T05:18:14;28.25;;;11.65;;
66112;SDS011;52893;52.870;5.822;2024-03-22T05:20:41;12.77;;;5.95;;
66112;SDS011;52893;52.870;5.822;2024-03-22T05:23:08;41.67;;;20.10;;
66112;SDS011;52893;52.870;5.822;2024-03-22T05:25:35;15.98;;;7.15;;
66112;SDS011;52893;52.870;5.822;2024-03-22T05:28:02;42.03;;;14.60;;
66112;SDS011;52893;52.870;5.822;2024-03-22T05:30:29;31.73;;;13.00;;
66112;SDS011;52893;52.870;5.822;2024-03-22T05:32:57;13.02;;;4.75;;
66112;SDS011;52893;52.870;5.822;2024-03-22T05:35:24;13.05;;;4.65;;
66112;SDS011;52893;52.870;5.822;2024-03-22T05:37:51;22.17;;;7.72;;
66112;SDS011;52893;52.870;5.822;2024-03-22T05:40:18;20.45;;;8.80;;
66112;SDS011;52893;52.870;5.822;2024-03-22T05:42:44;16.58;;;5.57;;
66112;SDS011;52893;52.870;5.822;2024-03-22T05:45:11;11.38;;;4.10;;
66112;SDS011;52893;52.870;5.822;2024-03-22T05:47:38;16.20;;;6.30;;
66112;SDS011;52893;52.870;5.822;2024-03-22T05:50:08;5.68;;;3.22;;
66112;SDS011;52893;52.870;5.822;2024-03-22T05:52:34;23.90;;;9.00;;
66112;SDS011;52893;52.870;5.822;2024-03-22T05:55:02;16.17;;;5.45;;
66112;SDS011;52893;52.870;5.822;2024-03-22T05:57:29;26.02;;;9.35;;
66112;SDS011;52893;52.870;5.822;2024-03-22T05:59:56;27.55;;;9.45;;
66112;SDS011;52893;52.870;5.822;2024-03-22T06:02:22;22.35;;;7.95;;
66112;SDS011;52893;52.870;5.822;2024-03-22T06:04:50;12.82;;;6.13;;
66112;SDS011;52893;52.870;5.822;2024-03-22T06:07:17;22.63;;;7.38;;
66112;SDS011;52893;52.870;5.822;2024-03-22T06:09:45;18.33;;;7.28;;
66112;SDS011;52893;52.870;5.822;2024-03-22T06:12:12;19.05;;;7.97;;
66112;SDS011;52893;52.870;5.822;2024-03-22T06:14:40;23.45;;;9.90;;
66112;SDS011;52893;52.870;5.822;2024-03-22T06:17:06;16.30;;;8.25;;
66112;SDS011;52893;52.870;5.822;2024-03-22T06:19:34;36.05;;;11.77;;
66112;SDS011;52893;52.870;5.822;2024-03-22T06:22:00;23.40;;;7.40;;
66112;SDS011;52893;52.870;5.822;2024-03-22T06:24:29;29.95;;;10.48;;
66112;SDS011;52893;52.870;5.822;2024-03-22T06:26:56;18.50;;;6.78;;
66112;SDS011;52893;52.870;5.822;2024-03-22T06:29:23;21.15;;;8.68;;
66112;SDS011;52893;52.870;5.822;2024-03-22T06:31:50;23.45;;;9.65;;
66112;SDS011;52893;52.870;5.822;2024-03-22T06:34:18;16.08;;;7.55;;
66112;SDS011;52893;52.870;5.822;2024-03-22T06:36:44;26.02;;;7.97;;
66112;SDS011;52893;52.870;5.822;2024-03-22T06:39:12;19.52;;;8.77;;
66112;SDS011;52893;52.870;5.822;2024-03-22T06:41:41;16.92;;;6.97;;
66112;SDS011;52893;52.870;5.822;2024-03-22T06:44:09;20.33;;;8.02;;
66112;SDS011;52893;52.870;5.822;2024-03-22T06:46:37;24.23;;;7.70;;
66112;SDS011;52893;52.870;5.822;2024-03-22T06:49:06;27.27;;;10.77;;
66112;SDS011;52893;52.870;5.822;2024-03-22T06:51:32;14.02;;;6.15;;
66112;SDS011;52893;52.870;5.822;2024-03-22T06:53:59;19.33;;;6.22;;
66112;SDS011;52893;52.870;5.822;2024-03-22T06:56:26;19.20;;;6.70;;
66112;SDS011;52893;52.870;5.822;2024-03-22T06:58:54;27.05;;;9.93;;
66112;SDS011;52893;52.870;5.822;2024-03-22T07:01:21;24.67;;;9.77;;
66112;SDS011;52893;52.870;5.822;2024-03-22T07:03:48;25.73;;;8.68;;
66112;SDS011;52893;52.870;5.822;2024-03-22T07:06:15;10.30;;;4.60;;
66112;SDS011;52893;52.870;5.822;2024-03-22T07:08:42;3.67;;;2.42;;
66112;SDS011;52893;52.870;5.822;2024-03-22T07:11:09;7.60;;;3.55;;
66112;SDS011;52893;52.870;5.822;2024-03-22T07:13:36;19.63;;;8.18;;
66112;SDS011;52893;52.870;5.822;2024-03-22T07:16:04;19.40;;;8.20;;
66112;SDS011;52893;52.870;5.822;2024-03-22T07:18:32;21.58;;;8.48;;
66112;SDS011;52893;52.870;5.822;2024-03-22T07:20:58;23.67;;;9.43;;
66112;SDS011;52893;52.870;5.822;2024-03-22T07:23:27;23.50;;;8.88;;
66112;SDS011;52893;52.870;5.822;2024-03-22T07:25:53;15.90;;;6.93;;
66112;SDS011;52893;52.870;5.822;2024-03-22T07:28:20;23.17;;;6.00;;
66112;SDS011;52893;52.870;5.822;2024-03-22T07:30:47;12.57;;;5.32;;
66112;SDS011;52893;52.870;5.822;2024-03-22T07:33:15;27.40;;;11.07;;
66112;SDS011;52893;52.870;5.822;2024-03-22T07:35:43;25.83;;;9.98;;
66112;SDS011;52893;52.870;5.822;2024-03-22T07:38:10;24.45;;;8.88;;
66112;SDS011;52893;52.870;5.822;2024-03-22T07:40:37;26.02;;;7.97;;
66112;SDS011;52893;52.870;5.822;2024-03-22T07:43:04;29.27;;;10.32;;
66112;SDS011;52893;52.870;5.822;2024-03-22T07:45:33;23.23;;;7.88;;
66112;SDS011;52893;52.870;5.822;2024-03-22T07:48:01;30.83;;;11.40;;
66112;SDS011;52893;52.870;5.822;2024-03-22T07:50:29;22.42;;;6.32;;
66112;SDS011;52893;52.870;5.822;2024-03-22T07:52:56;19.60;;;8.40;;
66112;SDS011;52893;52.870;5.822;2024-03-22T07:55:23;26.92;;;10.13;;
66112;SDS011;52893;52.870;5.822;2024-03-22T07:57:50;18.85;;;8.20;;
66112;SDS011;52893;52.870;5.822;2024-03-22T08:00:16;27.95;;;10.35;;
66112;SDS011;52893;52.870;5.822;2024-03-22T08:02:44;5.68;;;3.10;;
66112;SDS011;52893;52.870;5.822;2024-03-22T08:05:11;21.08;;;7.85;;
66112;SDS011;52893;52.870;5.822;2024-03-22T08:07:39;30.27;;;11.07;;
66112;SDS011;52893;52.870;5.822;2024-03-22T08:10:07;16.65;;;6.78;;
66112;SDS011;52893;52.870;5.822;2024-03-22T08:12:34;21.83;;;9.10;;
66112;SDS011;52893;52.870;5.822;2024-03-22T08:15:01;18.80;;;6.90;;
66112;SDS011;52893;52.870;5.822;2024-03-22T08:17:30;26.23;;;11.82;;
66112;SDS011;52893;52.870;5.822;2024-03-22T08:19:57;32.63;;;11.77;;
66112;SDS011;52893;52.870;5.822;2024-03-22T08:22:23;34.60;;;12.93;;
66112;SDS011;52893;52.870;5.822;2024-03-22T08:24:52;30.23;;;11.35;;
66112;SDS011;52893;52.870;5.822;2024-03-22T08:27:18;24.92;;;11.25;;
66112;SDS011;52893;52.870;5.822;2024-03-22T08:29:45;19.77;;;9.02;;
66112;SDS011;52893;52.870;5.822;2024-03-22T08:32:12;23.73;;;6.93;;
66112;SDS011;52893;52.870;5.822;2024-03-22T08:34:39;28.52;;;10.57;;
66112;SDS011;52893;52.870;5.822;2024-03-22T08:37:05;29.00;;;11.15;;
66112;SDS011;52893;52.870;5.822;2024-03-22T08:39:32;27.08;;;11.73;;
66112;SDS011;52893;52.870;5.822;2024-03-22T08:42:00;31.52;;;11.70;;
66112;SDS011;52893;52.870;5.822;2024-03-22T08:44:27;28.13;;;10.65;;
66112;SDS011;52893;52.870;5.822;2024-03-22T08:46:54;23.67;;;10.50;;
66112;SDS011;52893;52.870;5.822;2024-03-22T08:49:21;21.08;;;10.45;;
66112;SDS011;52893;52.870;5.822;2024-03-22T08:51:49;12.50;;;5.05;;
66112;SDS011;52893;52.870;5.822;2024-03-22T08:54:16;23.15;;;11.07;;
66112;SDS011;52893;52.870;5.822;2024-03-22T08:56:43;25.50;;;10.65;;
66112;SDS011;52893;52.870;5.822;2024-03-22T08:59:11;26.83;;;11.70;;
66112;SDS011;52893;52.870;5.822;2024-03-22T09:01:38;23.83;;;10.00;;
66112;SDS011;52893;52.870;5.822;2024-03-22T09:04:05;20.55;;;7.32;;
66112;SDS011;52893;52.870;5.822;2024-03-22T09:06:31;26.15;;;12.07;;
66112;SDS011;52893;52.870;5.822;2024-03-22T09:08:58;29.85;;;12.02;;
66112;SDS011;52893;52.870;5.822;2024-03-22T09:11:25;18.63;;;6.60;;
66112;SDS011;52893;52.870;5.822;2024-03-22T09:13:52;15.48;;;7.00;;
66112;SDS011;52893;52.870;5.822;2024-03-22T09:16:20;20.38;;;10.57;;
66112;SDS011;52893;52.870;5.822;2024-03-22T09:18:48;31.67;;;12.68;;
66112;SDS011;52893;52.870;5.822;2024-03-22T09:21:14;19.80;;;6.65;;
66112;SDS011;52893;52.870;5.822;2024-03-22T09:23:41;28.08;;;10.25;;
66112;SDS011;52893;52.870;5.822;2024-03-22T09:26:08;23.20;;;9.90;;
66112;SDS011;52893;52.870;5.822;2024-03-22T09:28:35;17.52;;;8.32;;
66112;SDS011;52893;52.870;5.822;2024-03-22T09:31:05;6.57;;;2.20;;
66112;SDS011;52893;52.870;5.822;2024-03-22T09:33:34;16.45;;;6.22;;
66112;SDS011;52893;52.870;5.822;2024-03-22T09:36:01;13.73;;;5.35;;
66112;SDS011;52893;52.870;5.822;2024-03-22T09:38:28;14.77;;;6.38;;
66112;SDS011;52893;52.870;5.822;2024-03-22T09:40:55;6.78;;;3.65;;
66112;SDS011;52893;52.870;5.822;2024-03-22T09:43:22;9.68;;;4.45;;
66112;SDS011;52893;52.870;5.822;2024-03-22T09:45:50;6.45;;;3.60;;
66112;SDS011;52893;52.870;5.822;2024-03-22T09:48:18;7.13;;;3.85;;
66112;SDS011;52893;52.870;5.822;2024-03-22T09:50:46;6.70;;;4.13;;
66112;SDS011;52893;52.870;5.822;2024-03-22T09:53:15;6.70;;;3.70;;
66112;SDS011;52893;52.870;5.822;2024-03-22T09:55:44;7.50;;;3.83;;
66112;SDS011;52893;52.870;5.822;2024-03-22T09:58:12;6.97;;;3.55;;
66112;SDS011;52893;52.870;5.822;2024-03-22T10:00:40;10.65;;;4.97;;
66112;SDS011;52893;52.870;5.822;2024-03-22T10:03:07;8.30;;;2.28;;
66112;SDS011;52893;52.870;5.822;2024-03-22T10:05:35;4.00;;;1.63;;
66112;SDS011;52893;52.870;5.822;2024-03-22T10:08:04;10.75;;;5.47;;
66112;SDS011;52893;52.870;5.822;2024-03-22T10:10:31;4.72;;;2.92;;
66112;SDS011;52893;52.870;5.822;2024-03-22T10:13:00;2.13;;;1.50;;
66112;SDS011;52893;52.870;5.822;2024-03-22T10:15:27;5.25;;;2.10;;
66112;SDS011;52893;52.870;5.822;2024-03-22T10:17:56;5.20;;;2.97;;
66112;SDS011;52893;52.870;5.822;2024-03-22T10:20:22;5.32;;;2.28;;
66112;SDS011;52893;52.870;5.822;2024-03-22T10:22:54;8.68;;;2.40;;
66112;SDS011;52893;52.870;5.822;2024-03-22T10:25:23;2.35;;;1.52;;
66112;SDS011;52893;52.870;5.822;2024-03-22T10:27:51;7.15;;;1.33;;
66112;SDS011;52893;52.870;5.822;2024-03-22T10:30:19;2.20;;;1.15;;
66112;SDS011;52893;52.870;5.822;2024-03-22T10:32:46;1.73;;;1.17;;
66112;SDS011;52893;52.870;5.822;2024-03-22T10:35:14;4.80;;;2.28;;
66112;SDS011;52893;52.870;5.822;2024-03-22T10:37:42;3.45;;;0.90;;
66112;SDS011;52893;52.870;5.822;2024-03-22T10:40:09;1.08;;;0.80;;
66112;SDS011;52893;52.870;5.822;2024-03-22T10:42:39;5.93;;;1.13;;
66112;SDS011;52893;52.870;5.822;2024-03-22T10:45:07;2.35;;;1.20;;
66112;SDS011;52893;52.870;5.822;2024-03-22T10:47:37;1.30;;;1.05;;
66112;SDS011;52893;52.870;5.822;2024-03-22T10:50:04;4.68;;;0.93;;
66112;SDS011;52893;52.870;5.822;2024-03-22T10:52:33;4.63;;;1.38;;
66112;SDS011;52893;52.870;5.822;2024-03-22T10:55:03;1.67;;;1.08;;
66112;SDS011;52893;52.870;5.822;2024-03-22T10:57:31;7.10;;;1.67;;
66112;SDS011;52893;52.870;5.822;2024-03-22T11:00:07;3.75;;;1.52;;
66112;SDS011;52893;52.870;5.822;2024-03-22T11:02:35;3.65;;;2.25;;
66112;SDS011;52893;52.870;5.822;2024-03-22T11:05:03;1.95;;;1.70;;
66112;SDS011;52893;52.870;5.822;2024-03-22T11:07:30;1.23;;;0.68;;
66112;SDS011;52893;52.870;5.822;2024-03-22T11:10:00;2.55;;;1.75;;
66112;SDS011;52893;52.870;5.822;2024-03-22T11:12:29;2.30;;;0.85;;
66112;SDS011;52893;52.870;5.822;2024-03-22T11:14:59;1.52;;;0.73;;
66112;SDS011;52893;52.870;5.822;2024-03-22T11:17:27;0.68;;;0.68;;
66112;SDS011;52893;52.870;5.822;2024-03-22T11:19:57;2.72;;;1.15;;
66112;SDS011;52893;52.870;5.822;2024-03-22T11:22:25;11.32;;;2.05;;
66112;SDS011;52893;52.870;5.822;2024-03-22T11:24:52;6.32;;;1.67;;
66112;SDS011;52893;52.870;5.822;2024-03-22T11:27:19;2.45;;;1.13;;
66112;SDS011;52893;52.870;5.822;2024-03-22T11:29:47;2.60;;;0.90;;
66112;SDS011;52893;52.870;5.822;2024-03-22T11:32:17;2.08;;;0.85;;
66112;SDS011;52893;52.870;5.822;2024-03-22T11:34:45;1.67;;;0.57;;
66112;SDS011;52893;52.870;5.822;2024-03-22T11:37:13;5.03;;;1.73;;
66112;SDS011;52893;52.870;5.822;2024-03-22T11:39:40;4.30;;;0.70;;
66112;SDS011;52893;52.870;5.822;2024-03-22T11:42:09;2.15;;;1.77;;
66112;SDS011;52893;52.870;5.822;2024-03-22T11:44:37;9.45;;;1.67;;
66112;SDS011;52893;52.870;5.822;2024-03-22T11:47:06;0.52;;;0.40;;
66112;SDS011;52893;52.870;5.822;2024-03-22T11:49:33;2.05;;;0.90;;
66112;SDS011;52893;52.870;5.822;2024-03-22T11:52:01;0.70;;;0.65;;
66112;SDS011;52893;52.870;5.822;2024-03-22T11:54:29;1.95;;;0.73;;
66112;SDS011;52893;52.870;5.822;2024-03-22T11:56:57;0.80;;;0.73;;
66112;SDS011;52893;52.870;5.822;2024-03-22T11:59:24;9.23;;;0.95;;
66112;SDS011;52893;52.870;5.822;2024-03-22T12:01:50;2.72;;;0.50;;
66112;SDS011;52893;52.870;5.822;2024-03-22T12:04:18;3.95;;;0.93;;
66112;SDS011;52893;52.870;5.822;2024-03-22T12:06:44;3.42;;;0.98;;
66112;SDS011;52893;52.870;5.822;2024-03-22T12:09:13;2.42;;;0.90;;
66112;SDS011;52893;52.870;5.822;2024-03-22T12:11:40;7.50;;;1.30;;
66112;SDS011;52893;52.870;5.822;2024-03-22T12:14:07;8.52;;;1.30;;
66112;SDS011;52893;52.870;5.822;2024-03-22T12:16:34;4.13;;;1.50;;
66112;SDS011;52893;52.870;5.822;2024-03-22T12:19:02;2.47;;;1.58;;
66112;SDS011;52893;52.870;5.822;2024-03-22T12:21:29;5.13;;;1.83;;
66112;SDS011;52893;52.870;5.822;2024-03-22T12:23:59;5.40;;;1.30;;
66112;SDS011;52893;52.870;5.822;2024-03-22T12:26:26;13.82;;;1.35;;
66112;SDS011;52893;52.870;5.822;2024-03-22T12:28:53;1.92;;;0.85;;
66112;SDS011;52893;52.870;5.822;2024-03-22T12:31:20;4.28;;;1.85;;
66112;SDS011;52893;52.870;5.822;2024-03-22T12:33:49;5.88;;;1.25;;
66112;SDS011;52893;52.870;5.822;2024-03-22T12:36:15;4.38;;;1.55;;
66112;SDS011;52893;52.870;5.822;2024-03-22T12:38:43;5.43;;;1.23;;
66112;SDS011;52893;52.870;5.822;2024-03-22T12:41:09;9.90;;;3.95;;
66112;SDS011;52893;52.870;5.822;2024-03-22T12:43:39;12.55;;;2.90;;
66112;SDS011;52893;52.870;5.822;2024-03-22T12:46:08;2.60;;;1.95;;
66112;SDS011;52893;52.870;5.822;2024-03-22T12:48:35;6.93;;;3.00;;
66112;SDS011;52893;52.870;5.822;2024-03-22T12:51:03;6.13;;;1.38;;
66112;SDS011;52893;52.870;5.822;2024-03-22T12:53:29;10.15;;;3.80;;
66112;SDS011;52893;52.870;5.822;2024-03-22T12:55:56;3.30;;;2.17;;
66112;SDS011;52893;52.870;5.822;2024-03-22T12:58:23;4.30;;;1.20;;
66112;SDS011;52893;52.870;5.822;2024-03-22T13:00:52;5.20;;;3.33;;
66112;SDS011;52893;52.870;5.822;2024-03-22T13:03:18;7.78;;;3.05;;
66112;SDS011;52893;52.870;5.822;2024-03-22T13:05:45;7.90;;;1.88;;
66112;SDS011;52893;52.870;5.822;2024-03-22T13:08:12;1.38;;;0.95;;
66112;SDS011;52893;52.870;5.822;2024-03-22T13:10:39;7.72;;;1.40;;
66112;SDS011;52893;52.870;5.822;2024-03-22T13:13:09;15.38;;;3.33;;
66112;SDS011;52893;52.870;5.822;2024-03-22T13:15:36;2.47;;;1.23;;
66112;SDS011;52893;52.870;5.822;2024-03-22T13:18:05;5.28;;;1.50;;
66112;SDS011;52893;52.870;5.822;2024-03-22T13:20:32;8.98;;;1.23;;
66112;SDS011;52893;52.870;5.822;2024-03-22T13:22:59;6.22;;;2.38;;
66112;SDS011;52893;52.870;5.822;2024-03-22T13:25:27;6.03;;;2.25;;
66112;SDS011;52893;52.870;5.822;2024-03-22T13:27:53;7.90;;;2.22;;
66112;SDS011;52893;52.870;5.822;2024-03-22T13:30:21;10.15;;;3.88;;
66112;SDS011;52893;52.870;5.822;2024-03-22T13:32:47;8.65;;;1.73;;
66112;SDS011;52893;52.870;5.822;2024-03-22T13:35:17;11.30;;;2.67;;
66112;SDS011;52893;52.870;5.822;2024-03-22T13:37:43;6.72;;;2.53;;
66112;SDS011;52893;52.870;5.822;2024-03-22T13:40:11;4.03;;;1.38;;
66112;SDS011;52893;52.870;5.822;2024-03-22T13:42:37;8.82;;;1.35;;
66112;SDS011;52893;52.870;5.822;2024-03-22T13:45:06;2.53;;;0.95;;
66112;SDS011;52893;52.870;5.822;2024-03-22T13:47:35;7.05;;;2.53;;
66112;SDS011;52893;52.870;5.822;2024-03-22T13:50:03;12.32;;;2.08;;
66112;SDS011;52893;52.870;5.822;2024-03-22T13:52:32;4.15;;;1.38;;
66112;SDS011;52893;52.870;5.822;2024-03-22T13:55:00;6.80;;;1.38;;
66112;SDS011;52893;52.870;5.822;2024-03-22T13:57:27;7.50;;;2.42;;
66112;SDS011;52893;52.870;5.822;2024-03-22T13:59:54;2.42;;;0.88;;
66112;SDS011;52893;52.870;5.822;2024-03-22T14:02:21;5.95;;;1.52;;
66112;SDS011;52893;52.870;5.822;2024-03-22T14:04:48;21.70;;;3.20;;
66112;SDS011;52893;52.870;5.822;2024-03-22T14:07:14;1.35;;;0.40;;
66112;SDS011;52893;52.870;5.822;2024-03-22T14:09:43;8.50;;;1.00;;
66112;SDS011;52893;52.870;5.822;2024-03-22T14:12:11;1.60;;;1.20;;
66112;SDS011;52893;52.870;5.822;2024-03-22T14:14:38;6.70;;;1.23;;
66112;SDS011;52893;52.870;5.822;2024-03-22T14:17:04;2.38;;;0.77;;
66112;SDS011;52893;52.870;5.822;2024-03-22T14:19:32;11.05;;;1.08;;
66112;SDS011;52893;52.870;5.822;2024-03-22T14:21:58;5.47;;;1.20;;
66112;SDS011;52893;52.870;5.822;2024-03-22T14:24:26;0.55;;;0.35;;
66112;SDS011;52893;52.870;5.822;2024-03-22T14:26:54;4.18;;;1.08;;
66112;SDS011;52893;52.870;5.822;2024-03-22T14:29:21;5.10;;;0.90;;
66112;SDS011;52893;52.870;5.822;2024-03-22T14:31:47;2.13;;;0.45;;
66112;SDS011;52893;52.870;5.822;2024-03-22T14:34:15;7.78;;;0.85;;